Terminal Aerodrome Forecast
Issued by NWS

Home | Current Version | Previous Version | Text Only | Print | Product List | Glossary On
Versions: 1 2 3 4 5 6 7 8 9 10 11 12 13 14 15 16 17 18
000
FTUS45 KRIW 071729
TAFRKS
TAF
KRKS 071729Z 0718/0818 VRB05KT P6SM SCT020 BKN050
     FM071900 VRB10G20KT P6SM VCTS SCT040CB BKN060
      TEMPO 0720/0724 6SM -TSRA BKN050CB
     FM080400 10007KT P6SM VCSH SCT030 BKN060
     FM080900 09007KT P6SM VCFG SCT003 BKN025=

USA.gov is the U.S. government's official web portal to all federal, state and local government web resources and services.